Anthem Of The Seas — C6BI7 — position and weather

sailwx.info

Track history (hours):
 
Tides and Currents Weather Stations Pressure Air Temp Water Temp Dewpoint Dewpoint Depression Visibility Wind Speed Wind Dir Waves Ship Positions

Anthem Of The Seas

Last reported at 2018-Feb-18 02:17 UTC. Time now 2018-Feb-19 10:10 UTC.
Position N 39°33' W 073°53'.

Length 348 m; draft 8.8 m.

Type: Passenger vessel. MMSI: 311000274.

Date/timePositionNaut miles runAvg speedWind from/ knotsBaromVisibWave heightAir tempDewpointWater temp
2018-Feb-18 02:17N 39°33' W 073°53'512.5
2018-Feb-18 01:52N 39°39' W 073°52'612.3
2018-Feb-18 01:22N 39°45' W 073°52'612.0
2018-Feb-18 00:55N 39°50' W 073°51'3610.7
2018-Feb-17 21:30N 40°27' W 073°49'612.2
2018-Feb-17 21:00N 40°30' W 073°56'815.6
2018-Feb-17 20:30N 40°35' W 074°02'5 8.6
2018-Feb-17 19:58N 40°40' W 074°04'0 0.0
2018-Feb-17 19:25N 40°40' W 074°04'0 0.0
2018-Feb-17 18:58N 40°40' W 074°04'0 0.0
2018-Feb-17 18:28N 40°40' W 074°04'0 0.0
2018-Feb-17 17:58N 40°40' W 074°04'0 0.0
2018-Feb-17 17:27N 40°40' W 074°04'0 0.0
2018-Feb-17 17:00N 40°40' W 074°04'0 0.0
2018-Feb-17 16:30N 40°40' W 074°04'0 0.0
2018-Feb-17 16:00N 40°40' W 074°04'0 0.0
2018-Feb-17 15:30N 40°40' W 074°04'0 0.0
2018-Feb-17 15:00N 40°40' W 074°04'0 0.0
2018-Feb-17 14:30N 40°40' W 074°04'0 0.0
2018-Feb-17 14:00N 40°40' W 074°04'0 0.0
2018-Feb-17 13:30N 40°40' W 074°04'0 0.0
2018-Feb-17 13:00N 40°40' W 074°04'0 0.0
2018-Feb-17 12:30N 40°40' W 074°04'0 0.0
2018-Feb-17 12:00N 40°40' W 074°04'0 0.0
2018-Feb-17 11:30N 40°40' W 074°04'0 0.1
2018-Feb-17 11:00N 40°40' W 074°04'2 4.4
2018-Feb-17 10:31N 40°38' W 074°03'713.9
2018-Feb-17 10:00N 40°31' W 073°60'612.4
2018-Feb-17 09:30N 40°28' W 073°53'5 9.4
2018-Feb-17 08:57N 40°26' W 073°46'4 8.8
2018-Feb-17 08:29N 40°22' W 073°47'510.0
2018-Feb-17 08:00N 40°17' W 073°46'510.0
2018-Feb-17 07:31N 40°13' W 073°45'1711.5
2018-Feb-17 06:00N 39°55' W 073°42'711.0
2018-Feb-17 05:24N 39°49' W 073°42'1010.8
2018-Feb-17 04:28N 39°39' W 073°41'510.7
2018-Feb-17 04:00N 39°34' W 073°42'26915.7
2018-Feb-16 10:51N 35°10' W 074°49'  
2018-Feb-13 03:55N 28°02' W 080°04'  
2018-Feb-10 03:17N 39°25' W 073°55'311.9
2018-Feb-10 03:01N 39°28' W 073°54'611.8
2018-Feb-10 02:29N 39°34' W 073°53'611.9
2018-Feb-10 02:00N 39°40' W 073°52'711.9
2018-Feb-10 01:27N 39°46' W 073°52'611.6
2018-Feb-10 00:56N 39°52' W 073°51'4610.4
2018-Feb-09 20:30N 40°37' W 074°03'3 0.3
2018-Feb-09 11:00N 40°40' W 074°04'  
Track history (hours):
 
Tides and Currents Weather Stations Pressure Air Temp Water Temp Dewpoint Dewpoint Depression Visibility Wind Speed Wind Dir Waves Ship Positions

Anthem Of The Seas

Last reported at 2018-Feb-18 02:17 UTC. Time now 2018-Feb-19 10:10 UTC.
Position N 39°33' W 073°53'.

Length 348 m; draft 8.8 m.

Type: Passenger vessel. MMSI: 311000274.

Date/timePositionNaut miles runAvg speedWind from/ knotsBaromVisibWave heightAir tempDewpointWater temp
2018-Feb-18 02:17N 39°33' W 073°53'512.5
2018-Feb-18 01:52N 39°39' W 073°52'612.3
2018-Feb-18 01:22N 39°45' W 073°52'612.0
2018-Feb-18 00:55N 39°50' W 073°51'3610.7
2018-Feb-17 21:30N 40°27' W 073°49'612.2
2018-Feb-17 21:00N 40°30' W 073°56'815.6
2018-Feb-17 20:30N 40°35' W 074°02'5 8.6
2018-Feb-17 19:58N 40°40' W 074°04'0 0.0
2018-Feb-17 19:25N 40°40' W 074°04'0 0.0
2018-Feb-17 18:58N 40°40' W 074°04'0 0.0
2018-Feb-17 18:28N 40°40' W 074°04'0 0.0
2018-Feb-17 17:58N 40°40' W 074°04'0 0.0
2018-Feb-17 17:27N 40°40' W 074°04'0 0.0
2018-Feb-17 17:00N 40°40' W 074°04'0 0.0
2018-Feb-17 16:30N 40°40' W 074°04'0 0.0
2018-Feb-17 16:00N 40°40' W 074°04'0 0.0
2018-Feb-17 15:30N 40°40' W 074°04'0 0.0
2018-Feb-17 15:00N 40°40' W 074°04'0 0.0
2018-Feb-17 14:30N 40°40' W 074°04'0 0.0
2018-Feb-17 14:00N 40°40' W 074°04'0 0.0
2018-Feb-17 13:30N 40°40' W 074°04'0 0.0
2018-Feb-17 13:00N 40°40' W 074°04'0 0.0
2018-Feb-17 12:30N 40°40' W 074°04'0 0.0
2018-Feb-17 12:00N 40°40' W 074°04'0 0.0
2018-Feb-17 11:30N 40°40' W 074°04'0 0.1
2018-Feb-17 11:00N 40°40' W 074°04'2 4.4
2018-Feb-17 10:31N 40°38' W 074°03'713.9
2018-Feb-17 10:00N 40°31' W 073°60'612.4
2018-Feb-17 09:30N 40°28' W 073°53'5 9.4
2018-Feb-17 08:57N 40°26' W 073°46'4 8.8
2018-Feb-17 08:29N 40°22' W 073°47'510.0
2018-Feb-17 08:00N 40°17' W 073°46'510.0
2018-Feb-17 07:31N 40°13' W 073°45'1711.5
2018-Feb-17 06:00N 39°55' W 073°42'711.0
2018-Feb-17 05:24N 39°49' W 073°42'1010.8
2018-Feb-17 04:28N 39°39' W 073°41'510.7
2018-Feb-17 04:00N 39°34' W 073°42'26915.7
2018-Feb-16 10:51N 35°10' W 074°49'  
2018-Feb-13 03:55N 28°02' W 080°04'  
2018-Feb-10 03:17N 39°25' W 073°55'311.9
2018-Feb-10 03:01N 39°28' W 073°54'611.8
2018-Feb-10 02:29N 39°34' W 073°53'611.9
2018-Feb-10 02:00N 39°40' W 073°52'711.9
2018-Feb-10 01:27N 39°46' W 073°52'611.6
2018-Feb-10 00:56N 39°52' W 073°51'4610.4
2018-Feb-09 20:30N 40°37' W 074°03'3 0.3
2018-Feb-09 11:00N 40°40' W 074°04'  

Dump ship's entire track history